sensor_id;sensor_type;location;lat;lon;timestamp;P1;durP1;ratioP1;P2;durP2;ratioP2
20523;SDS011;10420;48.542;12.270;2022-11-15T00:01:58;17.77;;;8.97;;
20523;SDS011;10420;48.542;12.270;2022-11-15T00:06:59;15.00;;;8.43;;
20523;SDS011;10420;48.542;12.270;2022-11-15T00:11:59;15.07;;;8.03;;
20523;SDS011;10420;48.542;12.270;2022-11-15T00:17:00;16.10;;;8.87;;
20523;SDS011;10420;48.542;12.270;2022-11-15T00:22:01;15.60;;;8.83;;
20523;SDS011;10420;48.542;12.270;2022-11-15T00:27:02;20.07;;;8.00;;
20523;SDS011;10420;48.542;12.270;2022-11-15T00:32:02;13.57;;;8.20;;
20523;SDS011;10420;48.542;12.270;2022-11-15T00:37:03;16.87;;;8.13;;
20523;SDS011;10420;48.542;12.270;2022-11-15T00:42:04;15.50;;;8.20;;
20523;SDS011;10420;48.542;12.270;2022-11-15T00:47:04;14.17;;;7.80;;
20523;SDS011;10420;48.542;12.270;2022-11-15T00:52:05;12.67;;;6.80;;
20523;SDS011;10420;48.542;12.270;2022-11-15T00:57:05;18.00;;;7.63;;
20523;SDS011;10420;48.542;12.270;2022-11-15T01:02:06;14.90;;;7.27;;
20523;SDS011;10420;48.542;12.270;2022-11-15T01:07:07;14.80;;;7.20;;
20523;SDS011;10420;48.542;12.270;2022-11-15T01:12:07;12.07;;;7.23;;
20523;SDS011;10420;48.542;12.270;2022-11-15T01:17:08;11.93;;;7.63;;
20523;SDS011;10420;48.542;12.270;2022-11-15T01:22:08;17.90;;;7.30;;
20523;SDS011;10420;48.542;12.270;2022-11-15T01:27:09;14.37;;;7.30;;
20523;SDS011;10420;48.542;12.270;2022-11-15T01:32:10;12.40;;;7.00;;
20523;SDS011;10420;48.542;12.270;2022-11-15T01:37:10;12.40;;;7.07;;
20523;SDS011;10420;48.542;12.270;2022-11-15T01:42:14;13.90;;;7.67;;
20523;SDS011;10420;48.542;12.270;2022-11-15T01:47:17;12.23;;;6.90;;
20523;SDS011;10420;48.542;12.270;2022-11-15T01:52:22;13.83;;;7.43;;
20523;SDS011;10420;48.542;12.270;2022-11-15T01:57:26;16.33;;;8.07;;
20523;SDS011;10420;48.542;12.270;2022-11-15T02:02:27;14.07;;;7.67;;
20523;SDS011;10420;48.542;12.270;2022-11-15T02:07:28;14.13;;;8.37;;
20523;SDS011;10420;48.542;12.270;2022-11-15T02:12:30;15.97;;;8.23;;
20523;SDS011;10420;48.542;12.270;2022-11-15T02:28:06;14.10;;;7.50;;
20523;SDS011;10420;48.542;12.270;2022-11-15T02:33:18;13.07;;;7.70;;
20523;SDS011;10420;48.542;12.270;2022-11-15T02:38:46;12.40;;;7.47;;
20523;SDS011;10420;48.542;12.270;2022-11-15T02:43:58;13.10;;;7.53;;
20523;SDS011;10420;48.542;12.270;2022-11-15T02:49:02;13.07;;;7.17;;
20523;SDS011;10420;48.542;12.270;2022-11-15T02:54:03;13.07;;;7.33;;
20523;SDS011;10420;48.542;12.270;2022-11-15T02:59:18;13.97;;;7.20;;
20523;SDS011;10420;48.542;12.270;2022-11-15T03:04:35;12.97;;;7.13;;
20523;SDS011;10420;48.542;12.270;2022-11-15T03:10:05;12.87;;;7.10;;
20523;SDS011;10420;48.542;12.270;2022-11-15T03:15:32;13.90;;;7.47;;
20523;SDS011;10420;48.542;12.270;2022-11-15T03:20:43;13.20;;;7.57;;
20523;SDS011;10420;48.542;12.270;2022-11-15T03:25:46;14.47;;;7.70;;
20523;SDS011;10420;48.542;12.270;2022-11-15T03:30:50;12.03;;;7.20;;
20523;SDS011;10420;48.542;12.270;2022-11-15T03:35:53;14.63;;;7.47;;
20523;SDS011;10420;48.542;12.270;2022-11-15T03:40:58;13.97;;;7.37;;
20523;SDS011;10420;48.542;12.270;2022-11-15T03:46:05;12.17;;;7.33;;
20523;SDS011;10420;48.542;12.270;2022-11-15T03:51:27;15.63;;;7.83;;
20523;SDS011;10420;48.542;12.270;2022-11-15T03:56:29;14.33;;;8.17;;
20523;SDS011;10420;48.542;12.270;2022-11-15T04:01:30;13.43;;;7.13;;
20523;SDS011;10420;48.542;12.270;2022-11-15T04:06:30;12.60;;;7.20;;
20523;SDS011;10420;48.542;12.270;2022-11-15T04:11:31;14.13;;;6.50;;
20523;SDS011;10420;48.542;12.270;2022-11-15T04:16:31;11.13;;;6.80;;
20523;SDS011;10420;48.542;12.270;2022-11-15T04:21:32;14.97;;;6.77;;
20523;SDS011;10420;48.542;12.270;2022-11-15T04:26:51;17.13;;;6.80;;
20523;SDS011;10420;48.542;12.270;2022-11-15T04:31:52;16.00;;;8.23;;
20523;SDS011;10420;48.542;12.270;2022-11-15T04:36:52;14.20;;;7.40;;
20523;SDS011;10420;48.542;12.270;2022-11-15T04:42:11;14.20;;;7.80;;
20523;SDS011;10420;48.542;12.270;2022-11-15T04:47:12;12.60;;;7.23;;
20523;SDS011;10420;48.542;12.270;2022-11-15T04:52:13;13.57;;;7.43;;
20523;SDS011;10420;48.542;12.270;2022-11-15T04:57:14;13.13;;;7.80;;
20523;SDS011;10420;48.542;12.270;2022-11-15T05:02:15;15.43;;;8.13;;
20523;SDS011;10420;48.542;12.270;2022-11-15T05:07:15;16.03;;;8.77;;
20523;SDS011;10420;48.542;12.270;2022-11-15T05:12:16;12.67;;;7.43;;
20523;SDS011;10420;48.542;12.270;2022-11-15T05:17:16;15.37;;;8.27;;
20523;SDS011;10420;48.542;12.270;2022-11-15T05:22:18;15.87;;;8.83;;
20523;SDS011;10420;48.542;12.270;2022-11-15T05:27:19;22.13;;;10.83;;
20523;SDS011;10420;48.542;12.270;2022-11-15T05:32:19;17.93;;;9.57;;
20523;SDS011;10420;48.542;12.270;2022-11-15T05:37:21;15.80;;;8.43;;
20523;SDS011;10420;48.542;12.270;2022-11-15T05:42:21;17.37;;;9.40;;
20523;SDS011;10420;48.542;12.270;2022-11-15T05:47:23;19.83;;;9.50;;
20523;SDS011;10420;48.542;12.270;2022-11-15T05:52:28;16.60;;;8.60;;
20523;SDS011;10420;48.542;12.270;2022-11-15T05:57:31;22.17;;;10.43;;
20523;SDS011;10420;48.542;12.270;2022-11-15T06:02:32;16.43;;;9.50;;
20523;SDS011;10420;48.542;12.270;2022-11-15T06:07:32;18.60;;;10.30;;
20523;SDS011;10420;48.542;12.270;2022-11-15T06:12:33;16.33;;;9.27;;
20523;SDS011;10420;48.542;12.270;2022-11-15T06:17:34;19.67;;;8.97;;
20523;SDS011;10420;48.542;12.270;2022-11-15T06:22:34;19.70;;;9.27;;
20523;SDS011;10420;48.542;12.270;2022-11-15T06:27:35;20.97;;;10.60;;
20523;SDS011;10420;48.542;12.270;2022-11-15T06:32:35;27.17;;;10.57;;
20523;SDS011;10420;48.542;12.270;2022-11-15T06:37:36;22.83;;;10.47;;
20523;SDS011;10420;48.542;12.270;2022-11-15T06:42:37;45.53;;;20.83;;
20523;SDS011;10420;48.542;12.270;2022-11-15T06:47:47;44.17;;;19.93;;
20523;SDS011;10420;48.542;12.270;2022-11-15T06:52:48;46.63;;;21.93;;
20523;SDS011;10420;48.542;12.270;2022-11-15T06:57:52;26.90;;;13.17;;
20523;SDS011;10420;48.542;12.270;2022-11-15T07:02:53;25.00;;;10.57;;
20523;SDS011;10420;48.542;12.270;2022-11-15T07:07:54;18.33;;;9.87;;
20523;SDS011;10420;48.542;12.270;2022-11-15T07:12:56;18.90;;;10.03;;
20523;SDS011;10420;48.542;12.270;2022-11-15T07:18:00;15.60;;;9.03;;
20523;SDS011;10420;48.542;12.270;2022-11-15T07:23:02;17.13;;;9.20;;
20523;SDS011;10420;48.542;12.270;2022-11-15T07:28:04;18.70;;;10.40;;
20523;SDS011;10420;48.542;12.270;2022-11-15T07:33:05;20.23;;;9.90;;
20523;SDS011;10420;48.542;12.270;2022-11-15T07:38:05;18.40;;;10.77;;
20523;SDS011;10420;48.542;12.270;2022-11-15T07:43:07;21.23;;;12.20;;
20523;SDS011;10420;48.542;12.270;2022-11-15T07:48:08;18.60;;;11.67;;
20523;SDS011;10420;48.542;12.270;2022-11-15T07:53:09;21.53;;;11.40;;
20523;SDS011;10420;48.542;12.270;2022-11-15T07:58:11;22.50;;;11.03;;
20523;SDS011;10420;48.542;12.270;2022-11-15T08:03:12;29.57;;;14.20;;
20523;SDS011;10420;48.542;12.270;2022-11-15T08:08:15;23.87;;;12.00;;
20523;SDS011;10420;48.542;12.270;2022-11-15T08:13:15;23.90;;;11.60;;
20523;SDS011;10420;48.542;12.270;2022-11-15T08:18:16;18.40;;;11.53;;
20523;SDS011;10420;48.542;12.270;2022-11-15T08:23:17;20.67;;;11.77;;
20523;SDS011;10420;48.542;12.270;2022-11-15T08:28:17;25.23;;;11.53;;
20523;SDS011;10420;48.542;12.270;2022-11-15T08:33:18;25.10;;;12.47;;
20523;SDS011;10420;48.542;12.270;2022-11-15T08:38:19;25.27;;;11.63;;
20523;SDS011;10420;48.542;12.270;2022-11-15T08:43:19;21.50;;;11.67;;
20523;SDS011;10420;48.542;12.270;2022-11-15T08:48:20;19.83;;;11.57;;
20523;SDS011;10420;48.542;12.270;2022-11-15T08:53:21;22.40;;;10.67;;
20523;SDS011;10420;48.542;12.270;2022-11-15T08:58:21;25.03;;;13.23;;
20523;SDS011;10420;48.542;12.270;2022-11-15T09:03:22;19.57;;;10.40;;
20523;SDS011;10420;48.542;12.270;2022-11-15T09:08:23;19.80;;;10.90;;
20523;SDS011;10420;48.542;12.270;2022-11-15T09:13:24;18.53;;;9.93;;
20523;SDS011;10420;48.542;12.270;2022-11-15T09:18:25;13.00;;;7.87;;
20523;SDS011;10420;48.542;12.270;2022-11-15T09:23:27;16.03;;;8.90;;
20523;SDS011;10420;48.542;12.270;2022-11-15T09:28:28;12.30;;;7.88;;
20523;SDS011;10420;48.542;12.270;2022-11-15T09:33:29;11.75;;;7.40;;
20523;SDS011;10420;48.542;12.270;2022-11-15T09:38:30;9.70;;;6.90;;
20523;SDS011;10420;48.542;12.270;2022-11-15T09:43:32;10.50;;;7.05;;
20523;SDS011;10420;48.542;12.270;2022-11-15T09:48:59;10.65;;;7.47;;
20523;SDS011;10420;48.542;12.270;2022-11-15T10:04:36;9.15;;;6.70;;
20523;SDS011;10420;48.542;12.270;2022-11-15T10:15:03;9.07;;;6.50;;
20523;SDS011;10420;48.542;12.270;2022-11-15T10:20:12;9.38;;;5.85;;
20523;SDS011;10420;48.542;12.270;2022-11-15T10:25:25;9.38;;;5.97;;
20523;SDS011;10420;48.542;12.270;2022-11-15T10:30:41;9.57;;;6.20;;
20523;SDS011;10420;48.542;12.270;2022-11-15T10:35:47;8.88;;;6.70;;
20523;SDS011;10420;48.542;12.270;2022-11-15T10:40:47;8.63;;;6.95;;
20523;SDS011;10420;48.542;12.270;2022-11-15T10:45:48;9.25;;;7.00;;
20523;SDS011;10420;48.542;12.270;2022-11-15T10:50:50;10.05;;;7.57;;
20523;SDS011;10420;48.542;12.270;2022-11-15T10:55:53;15.13;;;8.65;;
20523;SDS011;10420;48.542;12.270;2022-11-15T11:01:19;10.05;;;7.00;;
20523;SDS011;10420;48.542;12.270;2022-11-15T11:06:20;11.93;;;7.20;;
20523;SDS011;10420;48.542;12.270;2022-11-15T11:11:20;11.52;;;7.97;;
20523;SDS011;10420;48.542;12.270;2022-11-15T11:27:31;16.83;;;8.88;;
20523;SDS011;10420;48.542;12.270;2022-11-15T11:43:50;15.00;;;9.05;;
20523;SDS011;10420;48.542;12.270;2022-11-15T11:49:03;18.47;;;9.13;;
20523;SDS011;10420;48.542;12.270;2022-11-15T11:59:48;14.77;;;9.07;;
20523;SDS011;10420;48.542;12.270;2022-11-15T12:05:22;19.23;;;10.27;;
20523;SDS011;10420;48.542;12.270;2022-11-15T12:10:34;19.17;;;10.57;;
20523;SDS011;10420;48.542;12.270;2022-11-15T12:15:36;14.90;;;8.90;;
20523;SDS011;10420;48.542;12.270;2022-11-15T12:20:54;14.00;;;8.90;;
20523;SDS011;10420;48.542;12.270;2022-11-15T12:26:03;14.77;;;8.43;;
20523;SDS011;10420;48.542;12.270;2022-11-15T12:31:38;13.13;;;8.77;;
20523;SDS011;10420;48.542;12.270;2022-11-15T12:36:40;12.83;;;8.10;;
20523;SDS011;10420;48.542;12.270;2022-11-15T12:41:44;14.40;;;7.77;;
20523;SDS011;10420;48.542;12.270;2022-11-15T12:47:21;16.07;;;8.10;;
20523;SDS011;10420;48.542;12.270;2022-11-15T12:52:26;12.90;;;7.23;;
20523;SDS011;10420;48.542;12.270;2022-11-15T12:57:28;18.70;;;8.53;;
20523;SDS011;10420;48.542;12.270;2022-11-15T13:02:31;13.13;;;7.53;;
20523;SDS011;10420;48.542;12.270;2022-11-15T13:33:17;13.10;;;8.10;;
20523;SDS011;10420;48.542;12.270;2022-11-15T13:38:19;11.63;;;7.47;;
20523;SDS011;10420;48.542;12.270;2022-11-15T13:43:36;12.67;;;8.13;;
20523;SDS011;10420;48.542;12.270;2022-11-15T13:48:37;15.47;;;8.13;;
20523;SDS011;10420;48.542;12.270;2022-11-15T13:53:38;17.00;;;8.33;;
20523;SDS011;10420;48.542;12.270;2022-11-15T13:58:42;13.93;;;8.23;;
20523;SDS011;10420;48.542;12.270;2022-11-15T14:14:15;13.40;;;7.63;;
20523;SDS011;10420;48.542;12.270;2022-11-15T14:24:20;14.10;;;8.13;;
20523;SDS011;10420;48.542;12.270;2022-11-15T14:29:25;12.97;;;7.93;;
20523;SDS011;10420;48.542;12.270;2022-11-15T14:34:26;13.17;;;8.23;;
20523;SDS011;10420;48.542;12.270;2022-11-15T14:39:27;13.27;;;7.37;;
20523;SDS011;10420;48.542;12.270;2022-11-15T14:44:28;11.60;;;7.27;;
20523;SDS011;10420;48.542;12.270;2022-11-15T14:49:28;14.13;;;7.57;;
20523;SDS011;10420;48.542;12.270;2022-11-15T14:54:29;11.97;;;6.87;;
20523;SDS011;10420;48.542;12.270;2022-11-15T14:59:29;9.90;;;6.97;;
20523;SDS011;10420;48.542;12.270;2022-11-15T15:04:30;280.00;;;121.73;;
20523;SDS011;10420;48.542;12.270;2022-11-15T15:09:31;13.63;;;7.77;;
20523;SDS011;10420;48.542;12.270;2022-11-15T15:14:31;10.67;;;5.97;;
20523;SDS011;10420;48.542;12.270;2022-11-15T15:19:32;9.10;;;6.10;;
20523;SDS011;10420;48.542;12.270;2022-11-15T15:24:33;9.87;;;6.20;;
20523;SDS011;10420;48.542;12.270;2022-11-15T15:29:33;13.93;;;6.13;;
20523;SDS011;10420;48.542;12.270;2022-11-15T15:34:34;20.83;;;8.00;;
20523;SDS011;10420;48.542;12.270;2022-11-15T15:39:35;16.27;;;8.03;;
20523;SDS011;10420;48.542;12.270;2022-11-15T15:44:35;10.10;;;6.30;;
20523;SDS011;10420;48.542;12.270;2022-11-15T15:49:36;10.40;;;6.53;;
20523;SDS011;10420;48.542;12.270;2022-11-15T15:54:37;11.17;;;6.20;;
20523;SDS011;10420;48.542;12.270;2022-11-15T15:59:38;10.90;;;5.57;;
20523;SDS011;10420;48.542;12.270;2022-11-15T16:04:39;13.27;;;7.23;;
20523;SDS011;10420;48.542;12.270;2022-11-15T16:09:40;18.40;;;9.90;;
20523;SDS011;10420;48.542;12.270;2022-11-15T16:14:59;24.37;;;12.37;;
20523;SDS011;10420;48.542;12.270;2022-11-15T16:20:01;22.10;;;11.00;;
20523;SDS011;10420;48.542;12.270;2022-11-15T16:25:02;23.03;;;10.70;;
20523;SDS011;10420;48.542;12.270;2022-11-15T16:30:03;18.57;;;10.07;;
20523;SDS011;10420;48.542;12.270;2022-11-15T16:35:04;21.73;;;11.73;;
20523;SDS011;10420;48.542;12.270;2022-11-15T16:40:27;23.50;;;12.60;;
20523;SDS011;10420;48.542;12.270;2022-11-15T16:45:28;22.43;;;13.17;;
20523;SDS011;10420;48.542;12.270;2022-11-15T16:50:30;18.90;;;10.20;;
20523;SDS011;10420;48.542;12.270;2022-11-15T16:55:34;19.20;;;10.07;;
20523;SDS011;10420;48.542;12.270;2022-11-15T17:00:34;18.00;;;10.27;;
20523;SDS011;10420;48.542;12.270;2022-11-15T17:05:35;16.60;;;9.47;;
20523;SDS011;10420;48.542;12.270;2022-11-15T17:10:37;17.67;;;9.63;;
20523;SDS011;10420;48.542;12.270;2022-11-15T17:15:43;23.77;;;11.63;;
20523;SDS011;10420;48.542;12.270;2022-11-15T17:20:43;32.60;;;16.53;;
20523;SDS011;10420;48.542;12.270;2022-11-15T17:25:44;31.30;;;16.93;;
20523;SDS011;10420;48.542;12.270;2022-11-15T17:30:45;32.80;;;16.57;;
20523;SDS011;10420;48.542;12.270;2022-11-15T17:35:45;34.57;;;17.87;;
20523;SDS011;10420;48.542;12.270;2022-11-15T17:40:46;52.10;;;22.97;;
20523;SDS011;10420;48.542;12.270;2022-11-15T17:45:48;45.83;;;23.43;;
20523;SDS011;10420;48.542;12.270;2022-11-15T17:50:55;60.07;;;27.90;;
20523;SDS011;10420;48.542;12.270;2022-11-15T17:56:00;66.53;;;33.90;;
20523;SDS011;10420;48.542;12.270;2022-11-15T18:01:06;73.73;;;37.60;;
20523;SDS011;10420;48.542;12.270;2022-11-15T18:06:23;72.73;;;33.63;;
20523;SDS011;10420;48.542;12.270;2022-11-15T18:11:25;66.00;;;32.90;;
20523;SDS011;10420;48.542;12.270;2022-11-15T18:16:30;72.00;;;38.03;;
20523;SDS011;10420;48.542;12.270;2022-11-15T18:21:32;85.20;;;43.70;;
20523;SDS011;10420;48.542;12.270;2022-11-15T18:26:33;73.03;;;40.03;;
20523;SDS011;10420;48.542;12.270;2022-11-15T18:31:34;65.33;;;36.77;;
20523;SDS011;10420;48.542;12.270;2022-11-15T18:36:34;60.13;;;34.63;;
20523;SDS011;10420;48.542;12.270;2022-11-15T18:41:35;90.90;;;52.03;;
20523;SDS011;10420;48.542;12.270;2022-11-15T18:46:36;93.87;;;51.97;;
20523;SDS011;10420;48.542;12.270;2022-11-15T18:51:38;83.60;;;46.03;;
20523;SDS011;10420;48.542;12.270;2022-11-15T18:56:41;69.90;;;37.40;;
20523;SDS011;10420;48.542;12.270;2022-11-15T19:01:45;56.87;;;31.50;;
20523;SDS011;10420;48.542;12.270;2022-11-15T19:06:48;65.87;;;32.70;;
20523;SDS011;10420;48.542;12.270;2022-11-15T19:11:49;71.67;;;33.00;;
20523;SDS011;10420;48.542;12.270;2022-11-15T19:16:50;58.77;;;30.17;;
20523;SDS011;10420;48.542;12.270;2022-11-15T19:21:51;50.30;;;27.60;;
20523;SDS011;10420;48.542;12.270;2022-11-15T19:26:52;50.00;;;25.40;;
20523;SDS011;10420;48.542;12.270;2022-11-15T19:31:53;59.80;;;31.47;;
20523;SDS011;10420;48.542;12.270;2022-11-15T19:36:54;64.40;;;33.17;;
20523;SDS011;10420;48.542;12.270;2022-11-15T19:41:55;63.13;;;33.27;;
20523;SDS011;10420;48.542;12.270;2022-11-15T19:46:55;81.00;;;38.47;;
20523;SDS011;10420;48.542;12.270;2022-11-15T19:51:56;74.93;;;38.17;;
20523;SDS011;10420;48.542;12.270;2022-11-15T19:56:56;59.90;;;32.83;;
20523;SDS011;10420;48.542;12.270;2022-11-15T20:01:57;68.30;;;36.77;;
20523;SDS011;10420;48.542;12.270;2022-11-15T20:06:58;58.60;;;32.87;;
20523;SDS011;10420;48.542;12.270;2022-11-15T20:11:58;57.40;;;31.07;;
20523;SDS011;10420;48.542;12.270;2022-11-15T20:16:59;73.03;;;36.37;;
20523;SDS011;10420;48.542;12.270;2022-11-15T20:22:00;76.83;;;40.70;;
20523;SDS011;10420;48.542;12.270;2022-11-15T20:27:00;71.50;;;38.83;;
20523;SDS011;10420;48.542;12.270;2022-11-15T20:32:01;78.93;;;36.80;;
20523;SDS011;10420;48.542;12.270;2022-11-15T20:37:02;62.77;;;32.50;;
20523;SDS011;10420;48.542;12.270;2022-11-15T20:42:02;58.90;;;30.17;;
20523;SDS011;10420;48.542;12.270;2022-11-15T20:47:03;38.87;;;20.53;;
20523;SDS011;10420;48.542;12.270;2022-11-15T20:52:05;58.50;;;27.10;;
20523;SDS011;10420;48.542;12.270;2022-11-15T20:57:05;48.13;;;22.70;;
20523;SDS011;10420;48.542;12.270;2022-11-15T21:02:08;41.20;;;20.30;;
20523;SDS011;10420;48.542;12.270;2022-11-15T21:07:13;46.57;;;20.43;;
20523;SDS011;10420;48.542;12.270;2022-11-15T21:12:14;38.93;;;19.47;;
20523;SDS011;10420;48.542;12.270;2022-11-15T21:17:15;40.17;;;20.03;;
20523;SDS011;10420;48.542;12.270;2022-11-15T21:22:16;45.00;;;21.67;;
20523;SDS011;10420;48.542;12.270;2022-11-15T21:27:16;38.53;;;19.67;;
20523;SDS011;10420;48.542;12.270;2022-11-15T21:32:18;39.00;;;20.23;;
20523;SDS011;10420;48.542;12.270;2022-11-15T21:37:19;43.57;;;20.03;;
20523;SDS011;10420;48.542;12.270;2022-11-15T21:42:19;44.13;;;20.43;;
20523;SDS011;10420;48.542;12.270;2022-11-15T21:47:20;37.17;;;19.50;;
20523;SDS011;10420;48.542;12.270;2022-11-15T21:52:20;37.27;;;18.37;;
20523;SDS011;10420;48.542;12.270;2022-11-15T21:57:21;35.17;;;18.73;;
20523;SDS011;10420;48.542;12.270;2022-11-15T22:02:22;37.63;;;18.37;;
20523;SDS011;10420;48.542;12.270;2022-11-15T22:07:22;33.57;;;18.27;;
20523;SDS011;10420;48.542;12.270;2022-11-15T22:12:23;34.37;;;17.97;;
20523;SDS011;10420;48.542;12.270;2022-11-15T22:17:24;39.50;;;20.13;;
20523;SDS011;10420;48.542;12.270;2022-11-15T22:22:44;38.33;;;19.57;;
20523;SDS011;10420;48.542;12.270;2022-11-15T22:27:45;33.07;;;17.27;;
20523;SDS011;10420;48.542;12.270;2022-11-15T22:32:46;31.23;;;16.20;;
20523;SDS011;10420;48.542;12.270;2022-11-15T22:37:46;33.37;;;16.73;;
20523;SDS011;10420;48.542;12.270;2022-11-15T22:42:47;28.90;;;16.40;;
20523;SDS011;10420;48.542;12.270;2022-11-15T22:47:48;29.17;;;16.30;;
20523;SDS011;10420;48.542;12.270;2022-11-15T22:52:48;30.43;;;15.73;;
20523;SDS011;10420;48.542;12.270;2022-11-15T22:57:49;29.63;;;15.50;;
20523;SDS011;10420;48.542;12.270;2022-11-15T23:02:50;28.43;;;15.53;;
20523;SDS011;10420;48.542;12.270;2022-11-15T23:07:51;26.93;;;13.97;;
20523;SDS011;10420;48.542;12.270;2022-11-15T23:12:52;26.30;;;14.43;;
20523;SDS011;10420;48.542;12.270;2022-11-15T23:18:11;27.57;;;14.87;;
20523;SDS011;10420;48.542;12.270;2022-11-15T23:23:12;29.17;;;15.37;;
20523;SDS011;10420;48.542;12.270;2022-11-15T23:28:12;27.50;;;14.70;;
20523;SDS011;10420;48.542;12.270;2022-11-15T23:33:13;31.43;;;15.07;;
20523;SDS011;10420;48.542;12.270;2022-11-15T23:38:36;33.43;;;16.00;;
20523;SDS011;10420;48.542;12.270;2022-11-15T23:43:37;28.47;;;15.27;;
20523;SDS011;10420;48.542;12.270;2022-11-15T23:48:38;26.50;;;14.80;;
20523;SDS011;10420;48.542;12.270;2022-11-15T23:53:38;34.33;;;16.80;;
20523;SDS011;10420;48.542;12.270;2022-11-15T23:58:39;42.47;;;16.30;;
